Time;durP1;ratioP1;P1;durP2;ratioP2;P2;SDS_P1;SDS_P2;PMS_P1;PMS_P2;Temp;Humidity;BMP_temperature;BMP_pressure;BME280_temperature;BME280_humidity;BME280_pressure;Samples;Min_cycle;Max_cycle;Signal;HPM_P1;HPM_P2
2021/10/12 00:00:10;;;;;;;1.60;0.32;;;9.70;99.90;;;;;;4969532;28;20072;-67
2021/10/12 00:02:42;;;;;;;3.75;0.70;;;9.70;99.90;;;;;;4999804;28;20692;-65
2021/10/12 00:05:09;;;;;;;2.00;0.65;;;9.70;99.90;;;;;;4992671;28;20448;-65
2021/10/12 00:07:37;;;;;;;2.05;0.88;;;9.70;99.90;;;;;;4993054;28;20128;-65
2021/10/12 00:10:04;;;;;;;2.28;0.68;;;9.70;99.90;;;;;;5002383;28;20069;-65
2021/10/12 00:12:31;;;;;;;1.65;0.50;;;9.70;99.90;;;;;;5002891;28;20592;-66
2021/10/12 00:14:58;;;;;;;4.10;1.25;;;9.70;99.90;;;;;;4997873;28;20073;-67
2021/10/12 00:17:27;;;;;;;2.03;0.35;;;9.70;99.90;;;;;;5002421;28;20366;-67
2021/10/12 00:19:54;;;;;;;1.20;0.38;;;9.70;99.90;;;;;;5003488;28;20053;-65
2021/10/12 00:22:21;;;;;;;2.00;0.70;;;9.70;99.90;;;;;;5006918;28;20046;-67
2021/10/12 00:24:48;;;;;;;3.10;1.15;;;9.60;99.90;;;;;;4990610;28;20074;-66
2021/10/12 00:27:15;;;;;;;1.25;0.60;;;9.60;99.90;;;;;;5006633;28;20538;-66
2021/10/12 00:29:42;;;;;;;3.78;0.73;;;9.60;99.90;;;;;;5002923;28;20705;-65
2021/10/12 00:32:09;;;;;;;0.68;0.50;;;9.60;99.90;;;;;;4999943;28;20495;-66
2021/10/12 00:34:36;;;;;;;4.32;1.58;;;9.70;99.90;;;;;;4997387;28;20230;-68
2021/10/12 00:37:03;;;;;;;2.40;1.17;;;9.70;99.90;;;;;;5007122;28;20072;-70
2021/10/12 00:39:30;;;;;;;0.90;0.75;;;9.60;99.90;;;;;;5001730;28;20100;-65
2021/10/12 00:41:58;;;;;;;1.95;0.75;;;9.60;99.90;;;;;;4995948;28;20078;-65
2021/10/12 00:44:26;;;;;;;3.38;1.10;;;9.60;99.90;;;;;;5000386;28;20069;-71
2021/10/12 00:46:53;;;;;;;3.55;0.95;;;9.60;99.90;;;;;;4996361;28;20069;-66
2021/10/12 00:49:20;;;;;;;1.42;1.08;;;9.50;99.90;;;;;;4991794;28;20080;-66
2021/10/12 00:51:47;;;;;;;2.63;0.70;;;9.50;99.90;;;;;;5005696;28;20046;-65
2021/10/12 00:54:14;;;;;;;3.50;0.95;;;9.60;99.90;;;;;;5004887;28;20191;-65
2021/10/12 00:56:41;;;;;;;2.13;1.40;;;9.60;99.90;;;;;;5002408;28;20125;-68
2021/10/12 00:59:09;;;;;;;3.05;0.80;;;9.50;99.90;;;;;;5003487;28;20142;-68
2021/10/12 01:01:38;;;;;;;0.85;0.55;;;9.60;99.90;;;;;;4990924;28;20094;-68
2021/10/12 01:04:06;;;;;;;1.08;0.80;;;9.60;99.90;;;;;;4991605;28;20042;-66
2021/10/12 01:06:33;;;;;;;9.32;1.40;;;9.60;99.90;;;;;;5002969;28;20046;-66
2021/10/12 01:09:00;;;;;;;1.60;0.88;;;9.60;99.90;;;;;;5002465;28;20404;-66
2021/10/12 01:11:27;;;;;;;7.82;1.00;;;9.60;99.90;;;;;;5006657;28;20054;-66
2021/10/12 01:13:54;;;;;;;2.55;1.20;;;9.60;99.90;;;;;;5001279;28;20680;-65
2021/10/12 01:16:21;;;;;;;1.08;0.93;;;9.60;99.90;;;;;;5007089;28;20529;-67
2021/10/12 01:19:00;;;;;;;1.88;1.17;;;9.60;99.90;;;;;;5005866;28;20049;-66
2021/10/12 01:21:29;;;;;;;1.17;0.90;;;9.60;99.90;;;;;;5002205;28;20038;-66
2021/10/12 01:23:57;;;;;;;3.08;1.13;;;9.60;99.90;;;;;;5002484;28;20093;-65
2021/10/12 01:26:24;;;;;;;3.05;1.15;;;9.60;99.90;;;;;;5007753;28;20129;-65
2021/10/12 01:28:51;;;;;;;1.45;1.30;;;9.60;99.90;;;;;;5004303;28;20061;-65
2021/10/12 01:31:23;;;;;;;11.90;1.42;;;9.60;99.90;;;;;;5000279;28;20089;-66
2021/10/12 01:33:50;;;;;;;1.98;1.38;;;9.60;99.90;;;;;;5005886;28;20676;-70
2021/10/12 01:36:18;;;;;;;2.55;1.27;;;9.60;99.90;;;;;;5004326;28;20133;-65
2021/10/12 01:38:45;;;;;;;3.00;1.73;;;9.60;99.90;;;;;;4999352;28;20061;-66
2021/10/12 01:41:12;;;;;;;4.05;2.33;;;9.70;99.90;;;;;;4993542;28;20050;-67
2021/10/12 01:43:40;;;;;;;2.60;1.30;;;9.70;99.90;;;;;;4991669;28;20109;-66
2021/10/12 01:46:07;;;;;;;2.55;0.75;;;9.70;99.90;;;;;;4992353;28;20121;-67
2021/10/12 01:48:35;;;;;;;2.03;1.20;;;9.80;99.90;;;;;;4994133;28;20654;-68
2021/10/12 01:51:04;;;;;;;4.47;1.10;;;9.80;99.90;;;;;;5006963;28;20077;-68
2021/10/12 01:53:31;;;;;;;2.55;0.95;;;9.80;99.90;;;;;;5000126;28;20053;-66
2021/10/12 01:55:58;;;;;;;1.38;0.98;;;9.80;99.90;;;;;;4980191;28;20112;-69
2021/10/12 01:58:24;;;;;;;2.40;1.02;;;9.80;99.90;;;;;;4993807;28;20072;-65
2021/10/12 02:00:51;;;;;;;2.58;1.55;;;9.80;99.90;;;;;;4992306;28;20069;-68
2021/10/12 02:03:18;;;;;;;4.00;0.80;;;9.90;99.90;;;;;;4974009;28;20439;-68
2021/10/12 02:05:45;;;;;;;4.70;1.45;;;9.90;99.90;;;;;;4975051;28;20138;-66
2021/10/12 02:08:12;;;;;;;4.28;1.30;;;9.90;99.90;;;;;;4958881;28;20046;-67
2021/10/12 02:10:39;;;;;;;3.85;1.10;;;9.90;99.90;;;;;;4984525;28;20077;-65
2021/10/12 02:13:06;;;;;;;4.18;1.30;;;9.80;99.90;;;;;;4983752;28;20495;-67
2021/10/12 02:15:34;;;;;;;4.00;1.30;;;9.80;99.90;;;;;;4979695;28;20039;-67
2021/10/12 02:18:01;;;;;;;2.47;1.02;;;9.80;99.90;;;;;;4973178;28;20080;-66
2021/10/12 02:20:28;;;;;;;1.83;1.05;;;9.80;99.90;;;;;;4982157;28;20072;-66
2021/10/12 02:22:55;;;;;;;3.53;1.42;;;9.70;99.90;;;;;;4974131;28;20096;-65
2021/10/12 02:25:22;;;;;;;1.60;0.82;;;9.70;99.90;;;;;;4977568;28;20073;-69
2021/10/12 02:27:48;;;;;;;3.25;1.02;;;9.70;99.90;;;;;;4974892;28;20070;-66
2021/10/12 02:30:16;;;;;;;1.35;0.95;;;9.70;99.90;;;;;;4972931;28;20035;-68
2021/10/12 02:32:43;;;;;;;2.60;1.60;;;9.70;99.90;;;;;;4976060;28;20125;-70
2021/10/12 02:35:10;;;;;;;4.78;2.70;;;9.70;99.90;;;;;;4973697;28;20073;-66
2021/10/12 02:37:37;;;;;;;1.85;1.30;;;9.80;99.90;;;;;;4971356;28;20101;-65
2021/10/12 02:40:04;;;;;;;2.22;1.10;;;9.80;99.90;;;;;;4972689;28;20134;-69
2021/10/12 02:42:31;;;;;;;2.08;1.25;;;9.70;99.90;;;;;;4971342;28;20562;-65
2021/10/12 02:44:58;;;;;;;2.25;1.52;;;9.80;99.90;;;;;;4985014;28;20038;-66
2021/10/12 02:47:25;;;;;;;2.97;1.20;;;9.80;99.90;;;;;;4976932;28;20073;-68
2021/10/12 02:49:52;;;;;;;3.25;1.02;;;9.80;99.90;;;;;;4977498;28;20129;-65
2021/10/12 02:52:19;;;;;;;2.40;0.93;;;9.80;99.90;;;;;;4977526;28;20076;-67
2021/10/12 02:54:45;;;;;;;3.67;1.25;;;9.80;99.90;;;;;;4974212;28;20096;-69
2021/10/12 02:57:12;;;;;;;1.30;0.95;;;9.80;99.90;;;;;;4984334;28;20072;-66
2021/10/12 02:59:39;;;;;;;1.33;0.70;;;9.80;99.90;;;;;;4971318;28;20130;-65
2021/10/12 03:02:06;;;;;;;4.38;1.40;;;9.80;99.90;;;;;;4979781;28;20100;-67
2021/10/12 03:04:33;;;;;;;1.08;1.00;;;9.80;99.90;;;;;;4991050;28;20034;-65
2021/10/12 03:07:00;;;;;;;4.30;1.42;;;9.70;99.90;;;;;;4995787;28;20068;-66
2021/10/12 03:09:27;;;;;;;1.73;1.35;;;9.70;99.90;;;;;;4994632;28;20065;-66
2021/10/12 03:11:54;;;;;;;2.72;0.75;;;9.70;99.90;;;;;;5000604;28;20111;-66
2021/10/12 03:14:20;;;;;;;3.95;1.45;;;9.60;99.90;;;;;;4997114;28;20403;-66
2021/10/12 03:16:47;;;;;;;1.95;1.63;;;9.60;99.90;;;;;;4991506;28;20068;-66
2021/10/12 03:19:16;;;;;;;3.42;1.10;;;9.60;99.90;;;;;;4990124;28;20081;-67
2021/10/12 03:21:54;;;;;;;1.92;1.23;;;9.60;99.90;;;;;;4998896;28;20443;-65
2021/10/12 03:24:21;;;;;;;3.03;1.05;;;9.60;99.90;;;;;;4987605;28;20432;-67
2021/10/12 03:26:48;;;;;;;2.88;1.17;;;9.60;99.90;;;;;;4991338;28;20502;-68
2021/10/12 03:29:15;;;;;;;2.17;1.73;;;9.60;99.90;;;;;;4991823;28;20049;-66
2021/10/12 03:31:42;;;;;;;1.95;1.38;;;9.60;99.90;;;;;;4992196;28;20117;-66
2021/10/12 03:34:09;;;;;;;1.48;1.17;;;9.60;99.90;;;;;;4991103;28;20133;-66
2021/10/12 03:36:36;;;;;;;2.40;1.30;;;9.60;99.90;;;;;;4989930;28;20062;-66
2021/10/12 03:39:04;;;;;;;6.90;1.60;;;9.60;99.90;;;;;;4998875;28;20079;-66
2021/10/12 03:41:31;;;;;;;2.97;1.75;;;9.60;99.90;;;;;;4998303;28;20042;-66
2021/10/12 03:43:58;;;;;;;1.83;1.05;;;9.60;99.90;;;;;;4988751;28;20065;-70
2021/10/12 03:46:25;;;;;;;3.13;1.48;;;9.50;99.90;;;;;;4986864;28;20117;-65
2021/10/12 03:48:52;;;;;;;5.88;2.05;;;9.50;99.90;;;;;;5004753;28;20097;-66
2021/10/12 03:51:19;;;;;;;1.95;1.50;;;9.50;99.90;;;;;;4995274;28;20445;-66
2021/10/12 03:53:46;;;;;;;3.85;1.30;;;9.60;99.90;;;;;;5000214;28;20066;-67
2021/10/12 03:56:12;;;;;;;3.22;1.70;;;9.50;99.90;;;;;;5000272;28;20088;-65
2021/10/12 03:58:39;;;;;;;6.93;2.20;;;9.50;99.90;;;;;;4997672;28;20080;-67
2021/10/12 04:01:06;;;;;;;6.40;1.77;;;9.50;99.90;;;;;;4997678;28;20046;-67
2021/10/12 04:03:33;;;;;;;2.55;1.15;;;9.60;99.90;;;;;;5000689;28;20475;-66
2021/10/12 04:06:00;;;;;;;4.82;0.93;;;9.60;99.90;;;;;;5001032;28;20077;-67
2021/10/12 04:08:27;;;;;;;1.40;0.90;;;9.50;99.90;;;;;;4998965;28;20686;-67
2021/10/12 04:10:54;;;;;;;1.23;1.05;;;9.40;99.90;;;;;;5000051;28;20116;-69
2021/10/12 04:13:21;;;;;;;3.00;1.20;;;9.40;99.90;;;;;;5002696;28;20050;-69
2021/10/12 04:15:48;;;;;;;4.45;1.20;;;9.30;99.90;;;;;;5001437;28;20044;-66
2021/10/12 04:18:15;;;;;;;1.13;1.02;;;9.20;99.90;;;;;;4995697;28;20050;-66
2021/10/12 04:20:42;;;;;;;1.02;0.60;;;9.20;99.90;;;;;;4998836;28;20145;-66
2021/10/12 04:23:10;;;;;;;0.90;0.55;;;9.20;99.90;;;;;;5000771;28;20100;-70
2021/10/12 04:25:39;;;;;;;0.35;0.32;;;9.10;99.90;;;;;;4998927;28;20567;-66
2021/10/12 04:28:11;;;;;;;1.90;1.25;;;9.10;99.90;;;;;;4996183;28;20047;-68
2021/10/12 04:30:43;;;;;;;2.03;0.95;;;9.10;99.90;;;;;;5000498;28;20050;-67
2021/10/12 04:33:12;;;;;;;2.05;1.00;;;9.00;99.90;;;;;;4990460;28;20213;-66
2021/10/12 04:35:39;;;;;;;1.33;0.55;;;8.90;99.90;;;;;;4992486;28;20081;-70
2021/10/12 04:38:05;;;;;;;1.15;0.63;;;8.90;99.90;;;;;;4999789;28;20085;-67
2021/10/12 04:40:33;;;;;;;1.95;0.82;;;8.90;99.90;;;;;;5006912;28;20038;-70
2021/10/12 04:43:02;;;;;;;2.50;1.05;;;8.80;99.90;;;;;;5003667;28;20128;-66
2021/10/12 04:45:30;;;;;;;1.50;1.13;;;8.90;99.90;;;;;;5002226;28;20483;-67
2021/10/12 04:47:57;;;;;;;2.67;2.25;;;8.90;99.90;;;;;;5002514;28;20038;-67
2021/10/12 04:50:24;;;;;;;2.85;2.00;;;9.00;99.90;;;;;;5004849;28;20129;-69
2021/10/12 04:52:52;;;;;;;1.83;1.30;;;9.00;99.90;;;;;;5001838;28;20046;-66
2021/10/12 04:55:19;;;;;;;5.13;2.03;;;9.10;99.90;;;;;;4985348;28;20184;-66
2021/10/12 04:57:47;;;;;;;5.82;2.15;;;9.10;99.90;;;;;;5007215;28;20426;-66
2021/10/12 05:00:14;;;;;;;4.95;2.33;;;9.10;99.90;;;;;;4969534;28;20098;-66
2021/10/12 05:02:41;;;;;;;4.47;2.72;;;9.10;99.90;;;;;;5001934;28;20131;-68
2021/10/12 05:05:08;;;;;;;2.17;1.98;;;9.10;99.90;;;;;;5008385;28;20414;-67
2021/10/12 05:07:38;;;;;;;3.38;2.17;;;9.20;99.90;;;;;;5004955;28;20076;-65
2021/10/12 05:10:06;;;;;;;2.25;1.55;;;9.20;99.90;;;;;;5006337;28;20467;-66
2021/10/12 05:12:34;;;;;;;8.10;1.95;;;9.20;99.90;;;;;;5002871;28;20058;-70
2021/10/12 05:15:03;;;;;;;3.88;2.45;;;9.20;99.90;;;;;;5004945;28;20037;-67
2021/10/12 05:17:36;;;;;;;3.88;1.65;;;9.10;99.90;;;;;;4987549;28;20058;-67
2021/10/12 05:20:04;;;;;;;2.33;1.55;;;9.00;99.90;;;;;;5008912;28;20049;-66
2021/10/12 05:22:31;;;;;;;7.38;1.40;;;9.00;99.90;;;;;;5008330;28;20100;-68
2021/10/12 05:24:59;;;;;;;2.83;1.10;;;9.00;99.90;;;;;;5003541;28;20462;-69
2021/10/12 05:27:26;;;;;;;3.88;1.30;;;9.00;99.90;;;;;;5008566;28;20054;-72
2021/10/12 05:29:53;;;;;;;2.08;1.30;;;8.90;99.90;;;;;;5005610;28;20154;-66
2021/10/12 05:32:20;;;;;;;3.25;1.58;;;8.90;99.90;;;;;;5006118;28;20034;-66
2021/10/12 05:34:47;;;;;;;2.67;1.00;;;8.90;99.90;;;;;;5007626;28;20548;-66
2021/10/12 05:37:14;;;;;;;2.45;0.70;;;8.90;99.90;;;;;;5005323;28;20132;-66
2021/10/12 05:39:41;;;;;;;1.83;1.25;;;8.80;99.90;;;;;;5005576;28;20058;-67
2021/10/12 05:42:08;;;;;;;3.22;1.08;;;8.80;99.90;;;;;;5003906;28;20049;-71
2021/10/12 05:44:35;;;;;;;0.93;0.70;;;8.80;99.90;;;;;;4984889;28;20462;-68
2021/10/12 05:47:02;;;;;;;2.30;1.00;;;8.80;99.90;;;;;;4996382;28;20499;-69
2021/10/12 05:49:29;;;;;;;3.67;0.90;;;8.80;99.90;;;;;;4994474;28;20092;-68
2021/10/12 05:51:55;;;;;;;1.73;1.10;;;8.80;99.90;;;;;;4996564;28;20058;-72
2021/10/12 05:54:26;;;;;;;1.92;0.65;;;8.80;99.90;;;;;;5001789;28;20495;-68
2021/10/12 05:56:58;;;;;;;3.78;0.40;;;8.80;99.90;;;;;;4991457;28;20138;-67
2021/10/12 05:59:25;;;;;;;1.05;0.55;;;8.90;99.90;;;;;;5004664;28;20472;-67
2021/10/12 06:01:51;;;;;;;0.73;0.50;;;8.90;99.90;;;;;;4999698;28;20073;-67
2021/10/12 06:04:18;;;;;;;1.30;0.40;;;8.90;99.90;;;;;;4983634;28;20049;-66
2021/10/12 06:06:45;;;;;;;1.95;0.20;;;8.90;99.90;;;;;;4994787;28;20073;-70
2021/10/12 06:09:12;;;;;;;1.02;0.50;;;8.90;99.90;;;;;;5004732;28;20049;-67
2021/10/12 06:11:39;;;;;;;0.60;0.25;;;8.90;99.90;;;;;;5005603;28;20538;-66
2021/10/12 06:14:06;;;;;;;2.83;0.50;;;8.90;99.90;;;;;;5000807;28;20518;-69
2021/10/12 06:16:33;;;;;;;0.75;0.35;;;8.90;99.90;;;;;;4994102;28;20132;-67
2021/10/12 06:19:00;;;;;;;2.50;0.40;;;8.90;99.90;;;;;;5006186;28;20049;-69
2021/10/12 06:21:27;;;;;;;0.88;0.50;;;8.80;99.90;;;;;;4995844;28;20042;-69
2021/10/12 06:23:55;;;;;;;1.77;0.68;;;8.70;99.90;;;;;;5000571;28;20115;-68
2021/10/12 06:26:22;;;;;;;4.82;0.60;;;8.70;99.90;;;;;;5000911;28;20088;-66
2021/10/12 06:28:49;;;;;;;2.72;0.52;;;8.80;99.90;;;;;;5001484;28;20050;-70
2021/10/12 06:31:15;;;;;;;1.00;0.45;;;8.80;99.90;;;;;;5001922;28;20070;-70
2021/10/12 06:33:42;;;;;;;1.23;0.35;;;8.80;99.90;;;;;;4999023;28;20045;-68
2021/10/12 06:36:09;;;;;;;1.58;0.93;;;8.80;99.90;;;;;;4997823;28;20208;-68
2021/10/12 06:38:37;;;;;;;3.33;0.50;;;8.80;99.90;;;;;;5000796;28;20092;-66
2021/10/12 06:41:04;;;;;;;5.10;1.27;;;8.80;99.90;;;;;;4987932;28;20034;-69
2021/10/12 06:43:31;;;;;;;3.03;0.75;;;8.80;99.90;;;;;;5000686;28;20096;-65
2021/10/12 06:45:58;;;;;;;2.75;0.65;;;8.80;99.90;;;;;;5003097;28;20049;-69
2021/10/12 06:48:25;;;;;;;1.27;0.73;;;8.70;99.90;;;;;;4992312;28;20380;-68
2021/10/12 06:50:52;;;;;;;4.22;0.55;;;8.80;99.90;;;;;;5000639;28;20039;-66
2021/10/12 06:53:42;;;;;;;0.95;0.70;;;8.80;99.90;;;;;;5005102;28;20128;-66
2021/10/12 06:56:10;;;;;;;4.85;1.13;;;8.80;99.90;;;;;;5000994;28;20050;-66
2021/10/12 06:58:36;;;;;;;1.63;0.90;;;8.80;99.90;;;;;;4992743;28;20096;-66
2021/10/12 07:01:19;;;;;;;3.95;1.48;;;8.80;99.90;;;;;;4997595;28;20046;-68
2021/10/12 07:03:46;;;;;;;7.30;1.30;;;8.80;99.90;;;;;;4987760;28;20060;-69
2021/10/12 07:06:16;;;;;;;3.40;1.13;;;8.70;99.90;;;;;;5003181;28;20666;-69
2021/10/12 07:08:43;;;;;;;3.88;0.52;;;8.70;99.90;;;;;;4986301;28;20038;-68
2021/10/12 07:11:10;;;;;;;4.07;1.10;;;8.70;99.90;;;;;;5000657;28;20419;-66
2021/10/12 07:13:37;;;;;;;2.10;0.95;;;8.70;99.90;;;;;;4998102;28;20373;-66
2021/10/12 07:16:04;;;;;;;2.35;0.35;;;8.70;99.90;;;;;;5000216;28;20127;-67
2021/10/12 07:18:32;;;;;;;5.03;0.70;;;8.60;99.90;;;;;;5002566;28;20363;-66
2021/10/12 07:20:58;;;;;;;3.22;0.43;;;8.60;99.90;;;;;;4988822;28;20157;-65
2021/10/12 07:23:25;;;;;;;2.95;0.40;;;8.50;99.90;;;;;;4992748;28;20062;-67
2021/10/12 07:25:52;;;;;;;1.63;0.40;;;8.60;99.90;;;;;;4997104;28;20046;-69
2021/10/12 07:28:19;;;;;;;1.48;0.82;;;8.50;99.90;;;;;;4996703;28;20084;-66
2021/10/12 07:30:46;;;;;;;2.60;1.65;;;8.50;99.90;;;;;;5003531;28;20066;-67
2021/10/12 07:33:13;;;;;;;1.05;0.57;;;8.40;99.90;;;;;;5002609;28;20064;-67
2021/10/12 07:35:55;;;;;;;3.50;0.60;;;8.40;99.90;;;;;;4989195;28;20035;-67
2021/10/12 07:38:22;;;;;;;4.32;0.80;;;8.40;99.90;;;;;;4990689;28;20061;-67
2021/10/12 07:40:50;;;;;;;2.70;0.80;;;8.40;99.90;;;;;;4999045;28;20120;-68
2021/10/12 07:43:17;;;;;;;1.13;0.65;;;8.40;99.90;;;;;;4998031;28;20496;-69
2021/10/12 07:45:45;;;;;;;1.88;0.80;;;8.40;99.90;;;;;;5000916;28;20096;-68
2021/10/12 07:48:12;;;;;;;0.55;0.30;;;8.40;99.90;;;;;;4995822;28;20479;-68
2021/10/12 07:50:39;;;;;;;2.25;0.50;;;8.50;99.90;;;;;;4998046;28;20062;-69
2021/10/12 07:53:07;;;;;;;2.10;0.40;;;8.50;99.90;;;;;;4979772;28;20085;-68
2021/10/12 07:55:38;;;;;;;1.38;0.35;;;8.50;99.90;;;;;;5001135;28;20152;-67
2021/10/12 07:58:05;;;;;;;0.57;0.52;;;8.50;99.90;;;;;;4999762;28;20049;-67
2021/10/12 08:00:32;;;;;;;1.45;1.35;;;8.50;99.90;;;;;;5003842;28;20041;-67
2021/10/12 08:03:01;;;;;;;0.63;0.50;;;8.50;99.90;;;;;;4982795;28;20504;-69
2021/10/12 08:05:29;;;;;;;0.50;0.28;;;8.50;99.90;;;;;;5003410;28;20034;-70
2021/10/12 08:07:56;;;;;;;1.05;0.43;;;8.50;99.90;;;;;;5000030;28;20096;-69
2021/10/12 08:10:30;;;;;;;1.88;0.45;;;8.60;99.90;;;;;;5004331;28;20076;-67
2021/10/12 08:13:03;;;;;;;3.63;0.50;;;8.50;99.90;;;;;;5000242;28;20061;-70
2021/10/12 08:15:31;;;;;;;0.80;0.80;;;8.40;99.90;;;;;;5002634;28;20096;-69
2021/10/12 08:17:58;;;;;;;3.35;0.50;;;8.30;99.90;;;;;;5000386;28;20058;-71
2021/10/12 08:20:26;;;;;;;3.10;0.45;;;8.20;99.90;;;;;;4989078;28;20706;-68
2021/10/12 08:22:54;;;;;;;1.88;0.40;;;8.20;99.90;;;;;;4998132;28;20092;-69
2021/10/12 08:25:21;;;;;;;1.25;0.50;;;8.30;99.90;;;;;;5000493;28;20084;-68
2021/10/12 08:27:48;;;;;;;1.42;0.70;;;8.30;99.90;;;;;;5002553;28;20041;-68
2021/10/12 08:30:15;;;;;;;1.20;0.60;;;8.40;99.90;;;;;;4999633;28;20483;-69
2021/10/12 08:32:43;;;;;;;3.10;1.20;;;8.40;99.90;;;;;;4989378;28;20127;-68
2021/10/12 08:35:11;;;;;;;5.93;0.73;;;8.50;99.90;;;;;;4988603;28;20042;-68
2021/10/12 08:37:39;;;;;;;1.95;0.30;;;8.50;99.90;;;;;;4999674;28;20071;-70
2021/10/12 08:40:16;;;;;;;1.75;0.38;;;8.60;99.90;;;;;;5002400;28;20041;-69
2021/10/12 08:42:52;;;;;;;2.05;0.60;;;8.60;99.90;;;;;;4994069;28;20108;-69
2021/10/12 08:45:21;;;;;;;1.05;0.70;;;8.60;99.90;;;;;;4991701;28;20499;-69
2021/10/12 08:47:49;;;;;;;2.85;0.50;;;8.70;99.90;;;;;;5003626;28;20065;-68
2021/10/12 08:50:20;;;;;;;1.83;0.40;;;8.70;99.90;;;;;;5002682;28;20133;-68
2021/10/12 08:52:48;;;;;;;5.15;0.73;;;8.70;99.90;;;;;;5002669;28;20132;-70
2021/10/12 08:55:16;;;;;;;0.40;0.35;;;8.70;99.90;;;;;;5005413;28;20420;-69
2021/10/12 08:57:44;;;;;;;0.98;0.22;;;8.70;99.90;;;;;;4996963;28;20477;-69
2021/10/12 09:00:17;;;;;;;1.35;0.45;;;8.70;99.90;;;;;;5006328;28;20142;-68
2021/10/12 09:05:52;;;;;;;4.07;1.13;;;8.80;99.90;;;;;;4896788;29;20079;-69
2021/10/12 09:08:35;;;;;;;0.68;0.52;;;8.70;99.90;;;;;;4983225;28;20474;-68
2021/10/12 09:11:04;;;;;;;0.73;0.28;;;8.80;99.90;;;;;;5001362;28;20057;-70
2021/10/12 09:13:46;;;;;;;0.70;0.50;;;8.80;99.90;;;;;;4976080;28;20104;-68
2021/10/12 09:16:15;;;;;;;2.25;0.60;;;8.80;99.90;;;;;;5001441;28;20049;-70
2021/10/12 09:18:55;;;;;;;0.55;0.40;;;8.80;99.90;;;;;;4999119;28;20545;-68
2021/10/12 09:21:34;;;;;;;0.73;0.32;;;8.80;99.90;;;;;;4992703;28;20038;-68
2021/10/12 09:24:08;;;;;;;0.88;0.40;;;8.80;99.90;;;;;;5001608;28;20124;-68
2021/10/12 09:26:44;;;;;;;0.73;0.38;;;8.80;99.90;;;;;;5005014;28;20041;-70
2021/10/12 09:29:23;;;;;;;0.47;0.10;;;8.80;99.90;;;;;;4968143;28;20046;-70
2021/10/12 09:31:53;;;;;;;3.72;1.00;;;8.80;99.90;;;;;;4971389;28;20046;-72
2021/10/12 09:34:20;;;;;;;0.82;0.30;;;8.80;99.90;;;;;;4969237;28;20173;-72
2021/10/12 09:36:49;;;;;;;1.05;0.20;;;8.80;99.90;;;;;;4969737;28;20089;-73
2021/10/12 09:39:32;;;;;;;0.65;0.30;;;8.80;99.90;;;;;;4971017;28;20484;-68
2021/10/12 09:42:04;;;;;;;0.15;0.10;;;8.90;99.90;;;;;;4967193;28;20062;-77
2021/10/12 09:44:34;;;;;;;1.55;0.20;;;8.90;99.90;;;;;;4970596;28;20049;-69
2021/10/12 09:47:05;;;;;;;0.85;0.43;;;8.90;99.90;;;;;;4971308;28;20725;-70
2021/10/12 09:49:32;;;;;;;2.83;0.40;;;8.90;99.90;;;;;;4968668;28;20058;-77
2021/10/12 09:52:11;;;;;;;3.08;0.45;;;8.90;99.90;;;;;;4971797;28;20625;-70
2021/10/12 09:54:46;;;;;;;1.80;0.52;;;8.90;99.90;;;;;;4971230;28;20107;-68
2021/10/12 09:57:14;;;;;;;3.00;0.40;;;8.90;99.90;;;;;;4971150;28;20491;-72
2021/10/12 09:59:41;;;;;;;1.95;0.40;;;8.90;99.90;;;;;;5004741;28;20140;-69
2021/10/12 10:02:15;;;;;;;1.15;0.38;;;8.90;99.90;;;;;;5001068;28;20051;-68
2021/10/12 10:04:43;;;;;;;1.48;0.25;;;8.90;99.90;;;;;;5006691;28;20038;-72
2021/10/12 10:07:16;;;;;;;1.15;0.43;;;8.90;99.90;;;;;;4994677;28;20924;-68
2021/10/12 10:09:44;;;;;;;1.10;0.35;;;8.90;99.90;;;;;;4997919;28;20058;-68
2021/10/12 10:12:12;;;;;;;1.40;0.63;;;8.90;99.90;;;;;;5002051;28;20068;-68
2021/10/12 10:14:39;;;;;;;2.38;0.35;;;8.90;99.90;;;;;;5000783;28;20117;-69
2021/10/12 10:17:07;;;;;;;1.55;0.45;;;8.90;99.90;;;;;;5004231;28;20096;-69
2021/10/12 10:19:36;;;;;;;0.77;0.22;;;9.00;99.90;;;;;;5003048;28;20061;-70
2021/10/12 10:22:04;;;;;;;0.60;0.52;;;8.90;99.90;;;;;;5003607;28;20132;-69
2021/10/12 10:24:33;;;;;;;1.10;0.40;;;8.90;99.90;;;;;;5003486;28;20752;-70
2021/10/12 10:27:04;;;;;;;2.30;0.40;;;8.90;99.90;;;;;;5004479;28;20037;-73
2021/10/12 10:29:36;;;;;;;1.08;0.30;;;8.90;99.90;;;;;;5000599;28;20408;-69
2021/10/12 10:32:18;;;;;;;1.25;0.20;;;8.90;99.90;;;;;;5003412;28;20663;-72
2021/10/12 10:34:58;;;;;;;1.02;0.40;;;8.90;99.90;;;;;;5002851;28;20065;-67
2021/10/12 10:37:28;;;;;;;;;;;8.90;99.90;;;;;;5004538;28;20045;-69
2021/10/12 10:40:06;;;;;;;0.35;0.20;;;8.90;99.90;;;;;;5000741;28;19933;-72
2021/10/12 10:42:42;;;;;;;0.30;0.22;;;8.90;99.90;;;;;;5008779;28;20068;-73
2021/10/12 10:45:12;;;;;;;0.43;0.20;;;8.90;99.90;;;;;;5000262;28;20074;-67
2021/10/12 10:47:44;;;;;;;0.68;0.30;;;8.90;99.90;;;;;;5001153;28;20483;-68
2021/10/12 10:50:12;;;;;;;0.40;0.30;;;8.90;99.90;;;;;;5005649;28;20141;-67
2021/10/12 10:52:46;;;;;;;1.33;0.45;;;8.90;99.90;;;;;;5000925;28;20602;-67
2021/10/12 10:55:35;;;;;;;1.35;0.30;;;8.90;99.90;;;;;;5004182;28;20050;-71
2021/10/12 10:58:21;;;;;;;1.67;0.32;;;8.90;99.90;;;;;;5000522;28;20054;-68
2021/10/12 11:00:48;;;;;;;1.00;0.60;;;8.90;99.90;;;;;;5000295;28;20048;-71
2021/10/12 11:03:36;;;;;;;1.10;0.28;;;9.00;99.90;;;;;;5004520;28;20044;-68
2021/10/12 11:06:17;;;;;;;0.30;0.30;;;9.00;99.90;;;;;;4999879;28;20048;-67
2021/10/12 11:09:03;;;;;;;1.13;0.40;;;9.00;99.90;;;;;;5001738;28;20042;-67
2021/10/12 11:11:31;;;;;;;0.30;0.30;;;9.00;99.90;;;;;;5006221;28;20041;-69
2021/10/12 11:13:59;;;;;;;1.65;0.47;;;9.00;99.90;;;;;;4999273;28;20108;-69
2021/10/12 11:16:34;;;;;;;1.88;1.70;;;9.00;99.90;;;;;;5005030;28;20072;-70
2021/10/12 11:19:03;;;;;;;0.93;0.20;;;9.00;99.90;;;;;;5002758;28;20054;-69
2021/10/12 11:21:33;;;;;;;0.30;0.20;;;9.00;99.90;;;;;;5002694;28;20061;-69
2021/10/12 11:24:02;;;;;;;0.65;0.30;;;9.00;99.90;;;;;;5003565;28;20520;-69
2021/10/12 11:26:31;;;;;;;0.57;0.57;;;9.00;99.90;;;;;;4960842;28;21820;-68
2021/10/12 11:29:14;;;;;;;2.00;0.75;;;9.00;99.90;;;;;;2366119;28;10022706;-69
2021/10/12 11:31:41;;;;;;;0.20;0.20;;;9.00;99.90;;;;;;3624867;28;10001199;-68
2021/10/12 11:34:08;;;;;;;2.83;0.50;;;9.00;99.90;;;;;;4997157;28;20041;-70
2021/10/12 11:36:35;;;;;;;0.70;0.40;;;9.00;99.90;;;;;;5008479;28;20079;-69
2021/10/12 11:39:06;;;;;;;2.47;0.50;;;9.00;99.90;;;;;;5002284;28;20553;-69
2021/10/12 11:41:35;;;;;;;1.42;0.32;;;9.00;99.90;;;;;;5005712;28;20054;-68
2021/10/12 11:44:20;;;;;;;0.50;0.50;;;9.00;99.90;;;;;;5000925;28;20042;-70
2021/10/12 11:46:54;;;;;;;2.25;1.45;;;9.00;99.90;;;;;;5000175;28;20566;-69
2021/10/12 11:49:23;;;;;;;1.08;0.30;;;9.10;99.90;;;;;;4998190;28;20100;-68
2021/10/12 11:51:53;;;;;;;7.22;0.50;;;9.00;99.90;;;;;;5001202;28;20045;-71
2021/10/12 11:54:23;;;;;;;0.30;0.20;;;9.00;99.90;;;;;;4999662;28;20153;-71
2021/10/12 11:56:53;;;;;;;0.52;0.47;;;9.00;99.90;;;;;;4999966;28;20251;-68
2021/10/12 11:59:20;;;;;;;0.30;0.30;;;8.90;99.90;;;;;;4998994;28;20104;-72
2021/10/12 12:01:48;;;;;;;1.20;0.30;;;8.90;99.90;;;;;;5001427;28;20137;-72
2021/10/12 12:04:29;;;;;;;1.80;0.30;;;8.90;99.90;;;;;;4995891;28;20423;-68
2021/10/12 12:07:03;;;;;;;0.95;0.35;;;8.90;99.90;;;;;;5001750;28;20077;-69
2021/10/12 12:09:32;;;;;;;0.30;0.30;;;8.90;99.90;;;;;;5003017;28;20034;-70
2021/10/12 12:12:05;;;;;;;1.40;0.38;;;8.90;99.90;;;;;;4999631;28;20061;-73
2021/10/12 12:14:32;;;;;;;1.38;0.40;;;8.90;99.90;;;;;;5007260;28;20462;-67
2021/10/12 12:17:05;;;;;;;0.80;0.80;;;9.00;99.90;;;;;;5005038;28;20169;-68
2021/10/12 12:19:43;;;;;;;1.23;0.50;;;9.00;99.90;;;;;;5004827;28;20037;-67
2021/10/12 12:22:14;;;;;;;0.13;0.10;;;9.00;99.90;;;;;;5006624;28;20149;-69
2021/10/12 12:24:55;;;;;;;0.10;0.10;;;9.00;99.90;;;;;;5003713;28;20056;-68
2021/10/12 12:27:23;;;;;;;2.92;0.70;;;9.00;99.90;;;;;;5005809;28;20074;-70
2021/10/12 12:29:58;;;;;;;0.40;0.20;;;9.00;99.90;;;;;;5005931;28;20125;-72
2021/10/12 12:32:25;;;;;;;2.28;0.20;;;9.00;99.90;;;;;;5001264;28;20048;-71
2021/10/12 12:35:04;;;;;;;0.38;0.28;;;9.00;99.90;;;;;;5006886;28;20045;-70
2021/10/12 12:37:34;;;;;;;0.30;0.22;;;9.00;99.90;;;;;;5002750;28;20053;-69
2021/10/12 12:40:21;;;;;;;0.77;0.60;;;9.00;99.90;;;;;;5004495;28;20160;-68
2021/10/12 12:42:48;;;;;;;1.58;0.77;;;9.00;99.90;;;;;;5005192;28;20626;-68
2021/10/12 12:45:22;;;;;;;0.85;0.50;;;8.90;99.90;;;;;;5003918;28;20050;-67
2021/10/12 12:47:59;;;;;;;5.43;0.70;;;8.90;99.90;;;;;;5007656;28;20065;-69
2021/10/12 12:50:38;;;;;;;1.70;0.70;;;9.00;99.90;;;;;;5002735;28;20133;-71
2021/10/12 12:53:06;;;;;;;2.60;0.50;;;8.90;99.90;;;;;;4997984;28;20542;-71
2021/10/12 12:55:43;;;;;;;1.17;0.50;;;9.00;99.90;;;;;;5005840;28;20405;-69
2021/10/12 12:58:12;;;;;;;3.60;0.85;;;9.00;99.90;;;;;;5001913;28;20046;-70
2021/10/12 13:00:58;;;;;;;2.53;0.40;;;9.10;99.90;;;;;;5002935;28;20077;-68
2021/10/12 13:03:26;;;;;;;1.98;1.25;;;9.10;99.90;;;;;;5005858;28;20468;-74
2021/10/12 13:05:53;;;;;;;0.70;0.30;;;9.10;99.90;;;;;;5000213;28;20124;-72
2021/10/12 13:08:20;;;;;;;2.65;0.43;;;9.10;99.90;;;;;;5000705;28;20084;-75
2021/10/12 13:10:47;;;;;;;0.40;0.32;;;9.10;99.90;;;;;;5001042;28;20557;-71